Time;durP1;ratioP1;P1;durP2;ratioP2;P2;SDS_P1;SDS_P2;PMS_P1;PMS_P2;Temp;Humidity;BMP_temperature;BMP_pressure;BME280_temperature;BME280_humidity;BME280_pressure;Samples;Min_cycle;Max_cycle;Signal;HPM_P1;HPM_P2
2023/03/04 00:01:42;;;;;;;25.73;2.13;;;5.90;99.90;;;;;;5095663;28;20127;-81
2023/03/04 00:04:08;;;;;;;34.30;2.78;;;5.90;99.90;;;;;;5078352;28;20102;-81
2023/03/04 00:06:34;;;;;;;35.33;3.83;;;5.90;99.90;;;;;;5060472;28;20056;-80
2023/03/04 00:08:59;;;;;;;17.52;2.00;;;5.90;99.90;;;;;;5077426;28;20048;-81
2023/03/04 00:11:25;;;;;;;35.40;3.30;;;6.00;99.90;;;;;;5077080;28;20048;-80
2023/03/04 00:13:52;;;;;;;30.38;3.05;;;6.00;99.90;;;;;;5076986;28;20044;-81
2023/03/04 00:16:17;;;;;;;24.50;2.25;;;6.00;99.90;;;;;;5096415;28;20396;-81
2023/03/04 00:18:43;;;;;;;29.38;1.88;;;5.90;99.90;;;;;;5095901;28;20060;-82
2023/03/04 00:21:09;;;;;;;29.77;2.40;;;5.90;99.90;;;;;;5077661;28;20044;-81
2023/03/04 00:23:34;;;;;;;24.83;1.92;;;5.90;99.90;;;;;;5095607;28;20052;-80
2023/03/04 00:26:00;;;;;;;33.08;2.92;;;5.90;99.90;;;;;;5077021;28;20071;-81
2023/03/04 00:28:26;;;;;;;25.92;2.67;;;5.90;99.90;;;;;;5077604;28;20528;-80
2023/03/04 00:30:52;;;;;;;30.02;2.55;;;5.80;99.90;;;;;;5095238;28;20083;-80
2023/03/04 00:33:18;;;;;;;25.63;1.98;;;5.90;99.90;;;;;;5095422;28;20055;-80
2023/03/04 00:35:43;;;;;;;36.42;2.53;;;5.90;99.90;;;;;;5076820;28;20110;-81
2023/03/04 00:38:09;;;;;;;35.78;2.70;;;5.90;99.90;;;;;;5061529;28;20044;-81
2023/03/04 00:40:35;;;;;;;27.33;2.30;;;5.90;99.90;;;;;;5043552;28;20090;-81
2023/03/04 00:43:02;;;;;;;23.88;2.30;;;5.90;99.90;;;;;;5094655;28;20434;-81
2023/03/04 00:45:27;;;;;;;40.00;3.25;;;5.90;99.90;;;;;;5076552;28;20048;-80
2023/03/04 00:47:53;;;;;;;31.75;3.05;;;5.90;99.90;;;;;;5077448;28;20471;-80
2023/03/04 00:50:19;;;;;;;43.63;4.97;;;5.90;99.90;;;;;;5094621;28;20055;-82
2023/03/04 00:52:44;;;;;;;26.58;2.65;;;5.90;99.90;;;;;;5078105;28;20047;-79
2023/03/04 00:55:10;;;;;;;25.08;2.50;;;5.90;99.90;;;;;;5078140;28;20040;-82
2023/03/04 00:57:36;;;;;;;37.38;2.97;;;5.90;99.90;;;;;;5096086;28;20526;-84
2023/03/04 01:00:03;;;;;;;32.92;2.78;;;5.90;99.90;;;;;;5077656;28;20392;-81
2023/03/04 01:02:29;;;;;;;37.88;4.40;;;5.90;99.90;;;;;;5077711;28;20043;-81
2023/03/04 01:04:55;;;;;;;33.05;4.65;;;5.90;99.90;;;;;;5095454;28;20123;-83
2023/03/04 01:07:21;;;;;;;29.77;2.92;;;5.90;99.90;;;;;;5077759;28;20040;-80
2023/03/04 01:09:46;;;;;;;22.17;2.22;;;5.90;99.90;;;;;;5059937;28;20055;-81
2023/03/04 01:12:12;;;;;;;31.85;2.28;;;5.90;99.90;;;;;;5096590;28;20063;-79
2023/03/04 01:14:38;;;;;;;28.17;2.50;;;5.90;99.90;;;;;;5095174;28;20047;-88
2023/03/04 01:17:03;;;;;;;30.77;2.60;;;5.90;99.90;;;;;;5077809;28;20048;-81
2023/03/04 01:19:29;;;;;;;27.52;2.67;;;5.90;99.90;;;;;;5060584;28;20109;-81
2023/03/04 01:21:55;;;;;;;23.63;2.17;;;5.90;99.90;;;;;;5059192;28;20052;-80
2023/03/04 01:24:20;;;;;;;28.02;1.73;;;5.90;99.90;;;;;;5076962;28;20110;-82
2023/03/04 01:26:46;;;;;;;29.20;2.58;;;5.90;99.90;;;;;;5077411;28;20094;-81
2023/03/04 01:29:12;;;;;;;27.35;1.70;;;5.90;99.90;;;;;;5059959;28;20051;-81
2023/03/04 01:31:37;;;;;;;31.63;2.42;;;5.90;99.90;;;;;;5078011;28;20387;-80
2023/03/04 01:34:03;;;;;;;30.85;2.47;;;5.90;99.90;;;;;;5094731;28;20048;-81
2023/03/04 01:36:29;;;;;;;26.48;1.90;;;5.90;99.90;;;;;;5027236;28;20510;-81
2023/03/04 01:38:55;;;;;;;20.27;2.97;;;5.90;99.90;;;;;;5094077;28;20123;-80
2023/03/04 01:41:24;;;;;;;26.40;2.13;;;5.80;99.90;;;;;;5077057;28;20123;-80
2023/03/04 01:43:50;;;;;;;18.17;1.52;;;5.90;99.90;;;;;;5094507;28;20047;-80
2023/03/04 01:46:16;;;;;;;25.90;1.60;;;5.90;99.90;;;;;;5060173;28;20202;-81
2023/03/04 01:48:43;;;;;;;24.77;2.45;;;5.80;99.90;;;;;;5096658;28;20040;-83
2023/03/04 01:51:17;;;;;;;27.90;2.83;;;5.80;99.90;;;;;;5097780;28;20047;-81
2023/03/04 01:53:45;;;;;;;34.08;3.05;;;6.00;99.90;;;;;;5078276;28;20454;-87
2023/03/04 01:56:29;;;;;;;28.13;2.15;;;5.90;99.90;;;;;;5095932;28;20458;-80
2023/03/04 01:59:14;;;;;;;29.67;2.65;;;5.90;99.90;;;;;;5097169;28;20095;-81
2023/03/04 02:01:52;;;;;;;29.27;3.80;;;5.90;99.90;;;;;;5078258;28;20072;-80
2023/03/04 02:04:23;;;;;;;32.30;2.20;;;5.80;99.90;;;;;;5096426;28;20045;-81
2023/03/04 02:06:50;;;;;;;27.63;3.38;;;5.80;99.90;;;;;;5095067;28;20148;-82
2023/03/04 02:09:16;;;;;;;24.27;2.15;;;5.80;99.90;;;;;;5076400;28;20044;-80
2023/03/04 02:11:43;;;;;;;28.08;2.30;;;5.90;99.90;;;;;;5077051;28;20479;-82
2023/03/04 02:14:11;;;;;;;28.35;2.97;;;5.80;99.90;;;;;;5061742;28;20050;-81
2023/03/04 02:16:37;;;;;;;25.70;2.17;;;5.80;99.90;;;;;;5095296;28;20131;-81
2023/03/04 02:19:28;;;;;;;25.20;2.83;;;5.90;99.90;;;;;;5066926;28;20519;-81
2023/03/04 02:21:54;;;;;;;28.75;2.78;;;5.80;99.90;;;;;;5056966;28;20284;-80
2023/03/04 02:24:47;;;;;;;25.15;1.90;;;5.80;99.90;;;;;;5059691;28;20128;-80
2023/03/04 02:27:13;;;;;;;19.92;1.42;;;5.80;99.90;;;;;;5057886;28;20057;-80
2023/03/04 02:29:39;;;;;;;17.33;1.83;;;5.90;99.90;;;;;;5057207;28;20396;-81
2023/03/04 02:32:05;;;;;;;20.52;2.25;;;5.90;99.90;;;;;;5057436;28;20102;-81
2023/03/04 02:34:33;;;;;;;22.40;1.92;;;5.90;99.90;;;;;;5057586;28;20091;-81
2023/03/04 02:37:00;;;;;;;20.77;3.30;;;5.90;99.90;;;;;;5057166;28;20048;-82
2023/03/04 02:39:34;;;;;;;28.50;1.88;;;5.80;99.90;;;;;;5057812;28;20045;-82
2023/03/04 02:42:02;;;;;;;19.13;1.63;;;5.80;99.90;;;;;;5057157;28;20048;-82
2023/03/04 02:44:27;;;;;;;;;;;5.80;99.90;;;;;;5057865;28;20049;-81
2023/03/04 02:46:54;;;;;;;20.33;1.80;;;5.80;99.90;;;;;;5056397;28;19928;-82
2023/03/04 02:49:22;;;;;;;21.70;1.58;;;5.80;99.90;;;;;;5057254;28;20112;-81
2023/03/04 02:52:01;;;;;;;25.67;2.38;;;5.80;99.90;;;;;;5057486;28;20049;-80
2023/03/04 02:54:28;;;;;;;20.83;2.08;;;5.80;99.90;;;;;;5057872;28;20045;-82
2023/03/04 02:56:56;;;;;;;28.45;2.75;;;5.70;99.90;;;;;;5058558;28;20187;-83
2023/03/04 02:59:22;;;;;;;24.27;2.30;;;5.80;99.90;;;;;;5059598;28;20067;-81
2023/03/04 03:01:49;;;;;;;18.03;1.80;;;5.70;99.90;;;;;;5056785;28;20041;-82
2023/03/04 03:04:15;;;;;;;33.55;2.10;;;5.70;99.90;;;;;;5041499;28;20052;-81
2023/03/04 03:06:41;;;;;;;24.08;2.10;;;5.70;99.90;;;;;;5042013;28;20385;-81
2023/03/04 03:09:06;;;;;;;25.02;2.15;;;5.70;99.90;;;;;;5057773;28;20045;-81
2023/03/04 03:11:33;;;;;;;21.40;2.17;;;5.70;99.90;;;;;;5055983;28;20049;-81
2023/03/04 03:13:58;;;;;;;25.35;2.45;;;5.60;99.90;;;;;;5058397;28;20148;-82
2023/03/04 03:16:24;;;;;;;32.53;3.17;;;5.60;99.90;;;;;;5039414;28;20057;-80
2023/03/04 03:18:50;;;;;;;23.70;2.28;;;5.60;99.90;;;;;;5069374;28;20055;-81
2023/03/04 03:21:16;;;;;;;23.35;2.03;;;5.60;99.90;;;;;;5078987;28;20036;-80
2023/03/04 03:23:42;;;;;;;20.00;1.95;;;5.60;99.90;;;;;;5096671;28;20484;-80
2023/03/04 03:26:08;;;;;;;27.10;2.10;;;5.60;99.90;;;;;;5096751;28;20066;-83
2023/03/04 03:28:34;;;;;;;25.90;2.08;;;5.60;99.90;;;;;;5063426;28;20050;-81
2023/03/04 03:30:59;;;;;;;32.38;2.22;;;5.60;99.90;;;;;;5097769;28;20040;-81
2023/03/04 03:33:25;;;;;;;21.40;2.33;;;5.60;99.90;;;;;;5096761;28;20048;-82
2023/03/04 03:35:51;;;;;;;34.03;2.50;;;5.60;99.90;;;;;;5079418;28;20105;-80
2023/03/04 03:38:17;;;;;;;24.73;2.88;;;5.60;99.90;;;;;;5080893;28;20044;-83
2023/03/04 03:40:43;;;;;;;37.75;2.65;;;5.50;99.90;;;;;;5079153;28;20040;-81
2023/03/04 03:43:08;;;;;;;18.80;1.55;;;5.50;99.90;;;;;;5097227;28;20048;-82
2023/03/04 03:45:34;;;;;;;27.45;1.88;;;5.50;99.90;;;;;;5098097;28;20408;-80
2023/03/04 03:48:00;;;;;;;29.70;2.58;;;5.50;99.90;;;;;;5098632;28;20044;-86
2023/03/04 03:50:27;;;;;;;22.63;1.88;;;5.50;99.90;;;;;;5079621;28;20197;-81
2023/03/04 03:52:52;;;;;;;25.13;2.17;;;5.50;99.90;;;;;;5097227;28;20048;-82
2023/03/04 03:55:18;;;;;;;28.85;2.28;;;5.50;99.90;;;;;;5062003;28;20146;-81
2023/03/04 03:57:44;;;;;;;24.27;2.17;;;5.50;99.90;;;;;;5096813;28;20040;-83
2023/03/04 04:00:10;;;;;;;28.27;2.40;;;5.50;99.90;;;;;;5098950;28;20138;-82
2023/03/04 04:02:36;;;;;;;25.37;2.67;;;5.50;99.90;;;;;;5079710;28;20091;-80
2023/03/04 04:05:02;;;;;;;26.08;2.33;;;5.50;99.90;;;;;;5080178;28;20046;-85
2023/03/04 04:07:27;;;;;;;27.88;2.45;;;5.50;99.90;;;;;;5079089;28;20036;-81
2023/03/04 04:09:53;;;;;;;23.20;1.70;;;5.50;99.90;;;;;;5097221;28;20054;-82
2023/03/04 04:12:19;;;;;;;26.27;1.75;;;5.50;99.90;;;;;;5079182;28;20067;-81
2023/03/04 04:14:45;;;;;;;22.38;1.85;;;5.40;99.90;;;;;;5080088;28;20119;-82
2023/03/04 04:17:12;;;;;;;23.10;2.08;;;5.50;99.90;;;;;;5098501;28;20083;-81
2023/03/04 04:19:39;;;;;;;18.95;1.80;;;5.50;99.90;;;;;;5079069;28;20112;-82
2023/03/04 04:22:16;;;;;;;35.03;4.35;;;5.50;99.90;;;;;;5097863;28;20052;-85
2023/03/04 04:24:42;;;;;;;29.05;1.92;;;5.50;99.90;;;;;;5097388;28;20182;-83
2023/03/04 04:27:08;;;;;;;27.83;2.25;;;5.50;99.90;;;;;;5079373;28;20521;-81
2023/03/04 04:29:34;;;;;;;21.13;2.35;;;5.50;99.90;;;;;;5079057;28;20055;-83
2023/03/04 04:32:00;;;;;;;20.90;1.63;;;5.50;99.90;;;;;;5078008;28;20468;-82
2023/03/04 04:34:25;;;;;;;28.73;1.90;;;5.50;99.90;;;;;;5097044;28;20523;-80
2023/03/04 04:36:51;;;;;;;25.25;2.80;;;5.40;99.90;;;;;;5096131;28;20404;-81
2023/03/04 04:39:18;;;;;;;22.98;2.05;;;5.50;99.90;;;;;;5078339;28;20036;-80
2023/03/04 04:41:45;;;;;;;32.95;2.78;;;5.50;99.90;;;;;;5077923;28;20093;-80
2023/03/04 04:44:12;;;;;;;22.20;2.08;;;5.50;99.90;;;;;;5078489;28;20423;-82
2023/03/04 04:46:38;;;;;;;22.25;1.95;;;5.50;99.90;;;;;;5095888;28;20408;-80
2023/03/04 04:49:05;;;;;;;19.52;1.88;;;5.40;99.90;;;;;;5077824;28;20044;-81
2023/03/04 04:51:31;;;;;;;23.05;1.80;;;5.40;99.90;;;;;;5077503;28;20388;-81
2023/03/04 04:53:58;;;;;;;29.23;1.93;;;5.40;99.90;;;;;;5078000;28;20078;-82
2023/03/04 04:56:25;;;;;;;34.35;2.63;;;5.40;99.90;;;;;;5077037;28;20131;-82
2023/03/04 04:58:53;;;;;;;25.48;2.75;;;5.40;99.90;;;;;;5095942;28;20089;-82
2023/03/04 05:01:19;;;;;;;28.60;2.58;;;5.40;99.90;;;;;;5076061;28;20060;-81
2023/03/04 05:03:44;;;;;;;17.40;1.77;;;5.40;99.90;;;;;;5076458;28;20055;-82
2023/03/04 05:06:11;;;;;;;28.67;1.80;;;5.50;99.90;;;;;;5076097;28;20040;-84
2023/03/04 05:08:37;;;;;;;28.05;2.80;;;5.40;99.90;;;;;;5076098;28;20484;-81
2023/03/04 05:11:06;;;;;;;20.77;2.72;;;5.40;99.90;;;;;;5076371;28;20043;-83
2023/03/04 05:13:33;;;;;;;27.77;3.63;;;5.40;99.90;;;;;;5076869;28;20048;-82
2023/03/04 05:15:59;;;;;;;37.53;2.20;;;5.40;99.90;;;;;;5095152;28;20055;-81
2023/03/04 05:18:26;;;;;;;32.83;2.95;;;5.50;99.90;;;;;;5093808;28;20071;-83
2023/03/04 05:21:02;;;;;;;26.55;2.50;;;5.40;99.90;;;;;;5095086;28;20133;-82
2023/03/04 05:23:30;;;;;;;20.58;2.17;;;5.40;99.90;;;;;;5076764;28;20396;-82
2023/03/04 05:25:56;;;;;;;22.40;2.17;;;5.30;99.90;;;;;;5076812;28;20046;-82
2023/03/04 05:28:22;;;;;;;26.05;2.47;;;5.30;99.90;;;;;;5060244;28;20047;-83
2023/03/04 05:30:48;;;;;;;18.38;1.85;;;5.30;99.90;;;;;;5077797;28;20048;-82
2023/03/04 05:33:16;;;;;;;29.00;2.13;;;5.30;99.90;;;;;;5094619;28;20616;-83
2023/03/04 05:35:42;;;;;;;19.10;1.85;;;5.30;99.90;;;;;;5095496;28;20040;-82
2023/03/04 05:38:11;;;;;;;25.92;2.20;;;5.20;99.90;;;;;;5078097;28;20105;-82
2023/03/04 05:40:38;;;;;;;52.55;4.15;;;5.20;99.90;;;;;;5061316;28;20052;-82
2023/03/04 05:43:04;;;;;;;25.80;2.53;;;5.20;99.90;;;;;;5095624;28;20097;-82
2023/03/04 05:45:29;;;;;;;24.13;2.20;;;5.20;99.90;;;;;;5077470;28;20128;-81
2023/03/04 05:47:55;;;;;;;20.65;1.52;;;5.20;99.90;;;;;;5077622;28;20043;-82
2023/03/04 05:50:22;;;;;;;29.35;2.97;;;5.20;99.90;;;;;;5095632;28;20052;-82
2023/03/04 05:52:48;;;;;;;21.10;2.58;;;5.20;99.90;;;;;;5095378;28;20134;-82
2023/03/04 05:55:15;;;;;;;39.33;2.60;;;5.20;99.90;;;;;;5078289;28;20060;-83
2023/03/04 05:57:40;;;;;;;32.47;2.75;;;5.20;99.90;;;;;;5097936;28;20044;-82
2023/03/04 06:00:11;;;;;;;19.20;2.03;;;5.20;99.90;;;;;;5100089;28;20547;-81
2023/03/04 06:02:38;;;;;;;21.98;2.35;;;5.20;99.90;;;;;;5065596;28;20395;-82
2023/03/04 06:05:04;;;;;;;20.65;2.70;;;5.20;99.90;;;;;;5066043;28;20098;-82
2023/03/04 06:07:30;;;;;;;18.57;1.70;;;5.20;99.90;;;;;;5101001;28;20504;-82
2023/03/04 06:09:56;;;;;;;29.20;2.10;;;5.20;99.90;;;;;;5081502;28;20032;-82
2023/03/04 06:12:22;;;;;;;28.88;2.15;;;5.20;99.90;;;;;;5080230;28;20456;-83
2023/03/04 06:14:47;;;;;;;23.60;2.08;;;5.20;99.90;;;;;;5099171;28;20135;-81
2023/03/04 06:17:13;;;;;;;21.33;2.65;;;5.20;99.90;;;;;;5099154;28;20087;-83
2023/03/04 06:19:43;;;;;;;24.08;2.17;;;5.10;99.90;;;;;;5081106;28;20532;-82
2023/03/04 06:22:09;;;;;;;13.90;1.75;;;5.00;99.90;;;;;;5081072;28;20063;-83
2023/03/04 06:24:35;;;;;;;38.58;2.88;;;4.90;99.90;;;;;;5100755;28;20054;-81
2023/03/04 06:27:01;;;;;;;17.95;1.55;;;4.90;99.90;;;;;;5081427;28;20047;-82
2023/03/04 06:29:27;;;;;;;24.58;3.00;;;4.90;99.90;;;;;;5082047;28;20090;-82
2023/03/04 06:31:53;;;;;;;20.02;2.03;;;4.90;99.90;;;;;;5100554;28;20044;-82
2023/03/04 06:34:19;;;;;;;17.88;1.83;;;4.90;99.90;;;;;;5098501;28;20052;-84
2023/03/04 06:36:44;;;;;;;26.55;2.55;;;5.00;99.90;;;;;;5098675;28;20391;-82
2023/03/04 06:39:10;;;;;;;17.15;1.88;;;5.00;99.90;;;;;;5064087;28;20388;-82
2023/03/04 06:41:36;;;;;;;18.65;2.17;;;5.00;99.90;;;;;;5100807;28;20043;-82
2023/03/04 06:44:02;;;;;;;29.55;1.63;;;5.10;99.90;;;;;;5083532;28;20044;-82
2023/03/04 06:46:28;;;;;;;29.80;2.17;;;5.10;99.90;;;;;;5100044;28;20047;-82
2023/03/04 06:48:53;;;;;;;17.83;2.22;;;5.20;99.90;;;;;;5067330;28;20055;-81
2023/03/04 06:51:19;;;;;;;16.35;1.80;;;5.10;99.90;;;;;;5082049;28;20131;-83
2023/03/04 06:53:45;;;;;;;16.65;1.50;;;5.10;99.90;;;;;;5100956;28;20044;-84
2023/03/04 06:56:14;;;;;;;17.20;1.23;;;5.10;99.90;;;;;;5069826;28;20032;-84
2023/03/04 06:58:44;;;;;;;18.55;1.50;;;5.10;99.90;;;;;;5105405;28;20360;-83
2023/03/04 07:01:19;;;;;;;22.42;2.60;;;5.20;99.90;;;;;;5101126;28;20040;-82
2023/03/04 07:03:46;;;;;;;19.25;1.42;;;5.10;99.90;;;;;;5052409;28;20429;-83
2023/03/04 07:06:14;;;;;;;20.13;1.98;;;5.10;99.90;;;;;;5102668;28;20044;-82
2023/03/04 07:08:40;;;;;;;20.02;2.13;;;5.10;99.90;;;;;;5081240;28;20040;-82
2023/03/04 07:11:06;;;;;;;27.13;1.85;;;5.10;99.90;;;;;;5098719;28;20197;-83
2023/03/04 07:13:36;;;;;;;20.70;2.00;;;5.10;99.90;;;;;;5084141;28;20055;-84
2023/03/04 07:16:03;;;;;;;21.83;2.22;;;5.10;99.90;;;;;;5054972;28;20423;-84
2023/03/04 07:18:29;;;;;;;21.55;2.22;;;5.00;99.90;;;;;;5079107;28;20052;-89
2023/03/04 07:20:55;;;;;;;16.55;1.73;;;5.00;99.90;;;;;;5097796;28;20140;-84
2023/03/04 07:23:21;;;;;;;26.73;1.90;;;5.00;99.90;;;;;;5079084;28;20040;-83
2023/03/04 07:25:48;;;;;;;17.08;1.83;;;5.10;99.90;;;;;;5096453;28;20510;-83
2023/03/04 07:28:14;;;;;;;;;;;5.10;99.90;;;;;;5078695;28;20032;-84
2023/03/04 07:30:39;;;;;;;15.13;1.60;;;5.10;99.90;;;;;;5095519;28;19942;-82
2023/03/04 07:33:05;;;;;;;22.13;1.50;;;5.10;99.90;;;;;;5077621;28;20051;-82
2023/03/04 07:35:31;;;;;;;17.95;1.73;;;5.10;99.90;;;;;;5097356;28;20055;-84
2023/03/04 07:37:56;;;;;;;14.50;1.60;;;5.10;99.90;;;;;;5079607;28;20095;-82
2023/03/04 07:40:23;;;;;;;15.63;1.67;;;5.10;99.90;;;;;;5099355;28;20083;-84
2023/03/04 07:42:53;;;;;;;11.50;1.57;;;5.10;99.90;;;;;;5062476;28;20066;-84
2023/03/04 07:45:19;;;;;;;15.50;1.45;;;5.00;99.90;;;;;;5096816;28;20048;-83
2023/03/04 07:47:45;;;;;;;14.77;1.45;;;5.10;99.90;;;;;;5061264;28;20537;-84
2023/03/04 07:50:11;;;;;;;12.68;1.70;;;5.20;99.90;;;;;;5045427;28;20430;-83
2023/03/04 07:52:43;;;;;;;9.87;1.20;;;5.30;99.90;;;;;;5077608;28;20051;-85
2023/03/04 07:55:10;;;;;;;16.00;1.38;;;5.50;99.90;;;;;;5062403;28;20660;-85
2023/03/04 07:57:41;;;;;;;11.02;1.70;;;5.60;99.90;;;;;;5063029;28;20062;-85
2023/03/04 08:00:09;;;;;;;10.63;1.73;;;5.80;99.90;;;;;;5063225;28;20079;-81
2023/03/04 08:02:35;;;;;;;20.98;2.45;;;6.00;99.90;;;;;;5062160;28;20056;-87
2023/03/04 08:05:01;;;;;;;17.20;1.73;;;6.10;99.90;;;;;;5062798;28;20036;-82
2023/03/04 08:07:26;;;;;;;21.23;1.83;;;6.00;99.90;;;;;;5078358;28;20036;-82
2023/03/04 08:09:52;;;;;;;19.70;2.05;;;6.00;99.90;;;;;;5061639;28;20044;-81
2023/03/04 08:12:18;;;;;;;13.07;1.50;;;5.90;99.90;;;;;;5062111;28;20532;-81
2023/03/04 08:14:44;;;;;;;13.40;2.60;;;5.90;99.90;;;;;;5060457;28;20052;-82
2023/03/04 08:17:10;;;;;;;22.38;2.60;;;5.80;99.90;;;;;;5078601;28;20048;-83
2023/03/04 08:19:35;;;;;;;23.05;2.72;;;5.90;99.90;;;;;;5006578;28;1144471;-82
2023/03/04 08:22:02;;;;;;;21.90;2.20;;;6.10;99.90;;;;;;5054838;28;20053;-81
2023/03/04 08:24:27;;;;;;;21.40;3.60;;;6.00;99.90;;;;;;5054985;28;20045;-81
2023/03/04 08:26:53;;;;;;;15.48;2.60;;;6.00;99.90;;;;;;5055196;28;20404;-80
2023/03/04 08:29:21;;;;;;;14.38;2.08;;;6.10;99.90;;;;;;5037656;28;20113;-83
2023/03/04 08:31:49;;;;;;;17.60;2.08;;;6.00;99.90;;;;;;5053427;28;20083;-81
2023/03/04 08:34:15;;;;;;;;;;;6.00;99.90;;;;;;5039393;28;20060;-82
2023/03/04 08:36:44;;;;;;;20.83;2.43;;;6.00;99.90;;;;;;5056093;28;20007;-80
2023/03/04 08:39:15;;;;;;;24.65;3.00;;;5.80;99.90;;;;;;5053180;28;20044;-82
2023/03/04 08:41:41;;;;;;;13.32;1.75;;;5.90;99.90;;;;;;5036666;28;20049;-79
2023/03/04 08:44:09;;;;;;;19.48;1.98;;;6.00;99.90;;;;;;5054360;28;20515;-83
2023/03/04 08:46:35;;;;;;;25.23;2.53;;;6.10;99.90;;;;;;5037734;28;20561;-80
2023/03/04 08:49:02;;;;;;;20.45;1.60;;;6.10;99.90;;;;;;5053168;28;20048;-85
2023/03/04 08:51:28;;;;;;;25.60;3.00;;;6.20;99.90;;;;;;5054001;28;20049;-82
2023/03/04 08:53:55;;;;;;;29.52;2.13;;;6.30;99.90;;;;;;5037178;28;20432;-82
2023/03/04 08:56:21;;;;;;;21.38;1.85;;;6.30;99.90;;;;;;5038312;28;20108;-80
2023/03/04 08:58:46;;;;;;;20.60;1.48;;;6.40;99.90;;;;;;5053326;28;20401;-80
2023/03/04 09:01:14;;;;;;;22.35;1.40;;;6.50;99.90;;;;;;5036939;28;20048;-82
2023/03/04 09:03:40;;;;;;;22.20;1.58;;;6.70;99.90;;;;;;5053337;28;20053;-82
2023/03/04 09:06:07;;;;;;;38.83;2.33;;;6.70;99.90;;;;;;5054450;28;20045;-82
2023/03/04 09:08:34;;;;;;;22.40;1.80;;;6.90;99.90;;;;;;5053859;28;20044;-85
2023/03/04 09:11:00;;;;;;;23.47;1.70;;;7.00;99.90;;;;;;5036188;28;20053;-78
2023/03/04 09:13:29;;;;;;;19.48;1.77;;;6.90;99.90;;;;;;5054544;28;20294;-86
2023/03/04 09:15:54;;;;;;;21.60;1.70;;;7.00;99.90;;;;;;5055825;28;20045;-85
2023/03/04 09:18:22;;;;;;;20.80;1.58;;;7.00;99.90;;;;;;5038544;28;20406;-83
2023/03/04 09:20:47;;;;;;;;;;;7.10;99.90;;;;;;5061303;28;20055;-87
2023/03/04 09:23:13;;;;;;;36.03;2.03;;;7.10;99.90;;;;;;5077155;28;19920;-84
2023/03/04 09:25:41;;;;;;;22.42;1.77;;;7.10;99.90;;;;;;5060900;28;20138;-85
2023/03/04 09:28:06;;;;;;;17.13;1.95;;;7.20;99.90;;;;;;5095587;28;20480;-81
2023/03/04 09:30:33;;;;;;;21.40;1.80;;;7.30;99.90;;;;;;5080869;28;20063;-83
2023/03/04 09:32:59;;;;;;;29.10;2.30;;;7.20;99.90;;;;;;5046718;28;20052;-84
2023/03/04 09:35:25;;;;;;;29.52;1.92;;;7.20;99.90;;;;;;5060362;28;20040;-82
2023/03/04 09:37:52;;;;;;;40.10;2.72;;;7.10;99.90;;;;;;5060857;28;20052;-81
2023/03/04 09:40:30;;;;;;;35.28;2.60;;;7.00;99.90;;;;;;5075944;28;20487;-83
2023/03/04 09:43:04;;;;;;;30.65;2.88;;;6.70;99.90;;;;;;5060550;28;20055;-84
2023/03/04 09:45:45;;;;;;;30.73;2.08;;;6.60;99.90;;;;;;5094981;28;20040;-78
2023/03/04 09:48:17;;;;;;;30.17;2.78;;;6.50;99.90;;;;;;5093914;28;20480;-79
2023/03/04 09:51:20;;;;;;;32.00;3.22;;;6.40;99.90;;;;;;5094712;28;20432;-84
2023/03/04 09:54:08;;;;;;;35.45;2.42;;;6.40;99.90;;;;;;5090664;28;20056;-82
2023/03/04 09:56:37;;;;;;;45.53;3.60;;;6.30;99.90;;;;;;5059375;28;20123;-81
2023/03/04 09:59:15;;;;;;;31.77;2.65;;;6.20;99.90;;;;;;5093751;28;20040;-80
2023/03/04 10:01:59;;;;;;;33.55;2.05;;;6.30;99.90;;;;;;5075637;28;20082;-83
2023/03/04 10:04:39;;;;;;;47.28;3.55;;;6.50;99.90;;;;;;5075852;28;20379;-79
2023/03/04 10:07:14;;;;;;;39.45;4.03;;;6.60;99.90;;;;;;5075354;28;20036;-79
2023/03/04 10:09:52;;;;;;;41.58;2.95;;;6.80;99.90;;;;;;5076157;28;20380;-84
2023/03/04 10:12:24;;;;;;;25.83;1.40;;;6.90;99.90;;;;;;5095312;28;20079;-82
2023/03/04 10:15:17;;;;;;;28.38;1.80;;;7.00;99.90;;;;;;5060216;28;20051;-81
2023/03/04 10:17:47;;;;;;;33.70;2.97;;;7.10;99.90;;;;;;5077976;28;20040;-80
2023/03/04 10:20:26;;;;;;;39.35;2.53;;;7.10;99.90;;;;;;5078546;28;20056;-83
2023/03/04 10:23:15;;;;;;;33.65;3.25;;;7.10;99.90;;;;;;5076748;28;20087;-80
2023/03/04 10:25:45;;;;;;;40.13;3.33;;;7.10;99.90;;;;;;5077449;28;20076;-84
2023/03/04 10:28:20;;;;;;;28.63;2.47;;;7.10;99.90;;;;;;5059378;28;20377;-82
2023/03/04 10:31:03;;;;;;;84.72;5.75;;;7.00;99.90;;;;;;5060073;28;20143;-82
2023/03/04 10:33:35;;;;;;;31.83;3.25;;;7.10;99.90;;;;;;5095917;28;20052;-79
2023/03/04 10:36:05;;;;;;;38.00;3.10;;;7.10;99.90;;;;;;5060457;28;20043;-80
2023/03/04 10:38:38;;;;;;;31.88;2.63;;;7.00;99.90;;;;;;5076835;28;20040;-86
2023/03/04 10:41:23;;;;;;;30.90;3.75;;;7.00;99.90;;;;;;5076988;28;20059;-80
2023/03/04 10:44:01;;;;;;;36.30;2.28;;;6.80;99.90;;;;;;5096842;28;20097;-82
2023/03/04 10:46:27;;;;;;;34.50;2.45;;;7.10;99.90;;;;;;5079941;28;20044;-84
2023/03/04 10:48:53;;;;;;;28.75;2.53;;;7.10;99.90;;;;;;5064185;28;20054;-86
2023/03/04 10:51:28;;;;;;;26.08;2.53;;;7.00;99.90;;;;;;5082293;28;20052;-81
2023/03/04 10:54:08;;;;;;;29.40;2.58;;;7.10;99.90;;;;;;5105952;28;20048;-84
2023/03/04 10:56:41;;;;;;;34.97;2.00;;;7.10;99.90;;;;;;5102554;28;20044;-86
2023/03/04 10:59:35;;;;;;;32.50;4.00;;;7.40;99.90;;;;;;5085030;28;20040;-85
2023/03/04 11:02:18;;;;;;;42.60;3.05;;;7.20;99.90;;;;;;5069101;28;20063;-86
2023/03/04 11:04:54;;;;;;;50.40;3.35;;;7.30;99.90;;;;;;5082651;28;20460;-86
2023/03/04 11:07:23;;;;;;;47.50;3.17;;;7.50;99.90;;;;;;5099013;28;20032;-86
2023/03/04 11:09:48;;;;;;;37.35;2.45;;;7.30;99.90;;;;;;5099275;28;20289;-81
2023/03/04 11:12:18;;;;;;;41.05;3.88;;;7.40;99.90;;;;;;5098658;28;20036;-80
2023/03/04 11:14:51;;;;;;;41.33;4.82;;;7.60;99.90;;;;;;5099082;28;20040;-81
2023/03/04 11:17:28;;;;;;;50.97;3.40;;;7.60;99.90;;;;;;5099349;28;20044;-85
2023/03/04 11:19:55;;;;;;;50.13;5.47;;;7.30;99.90;;;;;;5101386;28;20059;-83
2023/03/04 11:22:23;;;;;;;37.00;3.90;;;7.20;99.90;;;;;;5083693;28;20052;-84
2023/03/04 11:25:38;;;;;;;28.98;2.47;;;7.10;99.90;;;;;;5100292;28;20048;-83
2023/03/04 11:28:18;;;;;;;25.25;2.50;;;7.00;99.90;;;;;;5071260;28;20052;-88
2023/03/04 11:30:50;;;;;;;27.88;2.10;;;6.80;99.90;;;;;;5102850;28;20051;-85
2023/03/04 11:33:28;;;;;;;19.50;1.67;;;6.90;99.90;;;;;;5104188;28;20052;-86
2023/03/04 11:36:16;;;;;;;21.38;2.55;;;6.90;99.90;;;;;;5083869;28;20044;-81
2023/03/04 11:38:48;;;;;;;17.58;1.90;;;7.10;99.90;;;;;;5100348;28;20041;-84
2023/03/04 11:41:30;;;;;;;25.58;1.63;;;7.20;99.90;;;;;;5099856;28;20040;-83
2023/03/04 11:43:58;;;;;;;16.40;1.83;;;7.40;99.90;;;;;;5066930;28;20048;-84
2023/03/04 11:46:42;;;;;;;12.80;0.82;;;7.70;99.90;;;;;;5100334;28;20040;-84
2023/03/04 11:49:22;;;;;;;15.98;1.02;;;7.70;99.90;;;;;;5082245;28;20148;-87
2023/03/04 11:52:13;;;;;;;19.90;1.40;;;7.90;99.90;;;;;;5065625;28;20060;-84
2023/03/04 11:54:47;;;;;;;17.48;1.48;;;8.00;99.90;;;;;;5097767;28;20048;-84
2023/03/04 11:57:16;;;;;;;20.88;1.58;;;8.00;99.90;;;;;;5080054;28;20044;-83
2023/03/04 12:00:04;;;;;;;12.05;1.33;;;7.70;99.90;;;;;;5064291;28;20044;-82
2023/03/04 12:02:41;;;;;;;23.30;1.30;;;7.80;99.90;;;;;;5099090;28;20111;-82
2023/03/04 12:05:50;;;;;;;28.83;2.47;;;7.70;99.90;;;;;;5080754;28;20067;-84
2023/03/04 12:08:44;;;;;;;15.70;0.88;;;8.00;99.90;;;;;;5043108;28;20055;-86
2023/03/04 12:11:15;;;;;;;13.48;0.80;;;7.60;99.90;;;;;;5065047;28;20048;-87
2023/03/04 12:13:58;;;;;;;16.08;1.23;;;7.60;99.90;;;;;;5099441;28;20131;-83
2023/03/04 12:17:08;;;;;;;17.23;0.77;;;7.40;99.90;;;;;;5079745;28;20040;-85
2023/03/04 12:20:13;;;;;;;12.88;1.30;;;7.90;99.90;;;;;;5065857;28;20070;-86
2023/03/04 12:23:05;;;;;;;31.50;1.98;;;8.10;99.90;;;;;;5097254;28;20101;-82
2023/03/04 12:25:49;;;;;;;30.00;2.60;;;8.10;99.90;;;;;;5085639;28;20483;-84
2023/03/04 12:28:20;;;;;;;33.97;3.05;;;7.80;99.90;;;;;;5080090;28;20103;-86
2023/03/04 12:31:05;;;;;;;26.15;3.30;;;7.70;99.90;;;;;;5078487;28;20440;-83
2023/03/04 12:33:31;;;;;;;38.25;2.50;;;8.00;99.90;;;;;;5098301;28;20127;-79
2023/03/04 12:36:05;;;;;;;37.08;2.92;;;8.00;99.90;;;;;;5081315;28;20083;-84
2023/03/04 12:38:49;;;;;;;31.90;3.38;;;7.90;99.90;;;;;;5065218;28;20137;-85
2023/03/04 12:41:34;;;;;;;24.30;2.28;;;7.80;99.90;;;;;;5099272;28;20040;-80
2023/03/04 12:44:45;;;;;;;36.28;3.85;;;8.00;99.90;;;;;;5098145;28;20130;-83
2023/03/04 12:47:49;;;;;;;30.00;1.95;;;7.60;99.90;;;;;;5034742;28;20051;-84
2023/03/04 12:50:30;;;;;;;25.35;2.20;;;7.70;99.90;;;;;;5065261;28;20054;-84
2023/03/04 12:53:26;;;;;;;31.83;3.00;;;7.60;99.90;;;;;;5080926;28;20044;-85
2023/03/04 12:55:56;;;;;;;38.47;3.33;;;7.60;99.90;;;;;;5081226;28;20044;-82
2023/03/04 12:58:26;;;;;;;24.40;1.75;;;7.80;99.90;;;;;;5063292;28;20079;-82
2023/03/04 13:01:00;;;;;;;21.45;1.42;;;7.70;99.90;;;;;;5097610;28;20051;-82
2023/03/04 13:03:52;;;;;;;27.20;2.00;;;8.00;99.90;;;;;;5063540;28;20062;-82